• Join FlightAware (Why Join?)
  • Login
  • US Flag 
Trick or treat! (Boo!!) 
12:51AM EDT


 

Airport Tracker/Info


-or-


 

Live Flight TrackerFlight Track Log ✈ DAL3796 ✈ 2014年 01月 14日 ✈ KMSP - KICT

Flight Track Log - Related Links

Times and Time Zones

All times are in EST time to prevent confusion due to time zone crossing. See the DAL3796 flight status page for this flight to view local times or setup timezone preferences in your user account.

Time Position Orientation Groundspeed Altitude Reporting Facility
EST Latitude Longitude Course Direction KTS MPH feet Rate Location/Type
10:35AM 44.9000 -93.2333 270° West 146 168 2,400  Level Minneapolis TRACON
10:35AM 44.9000 -93.3000 270° West 209 241 4,600 2,160 Climbing Minneapolis TRACON
10:37AM 44.8506 -93.3878 232° Southwest 275 316 7,000 2,460 Climbing Minneapolis Center
10:38AM 44.8031 -93.4728 232° Southwest 280 322 10,100 2,700 Climbing Minneapolis Center
10:39AM 44.7394 -93.5872 232° Southwest 316 364 12,600 2,220 Climbing Minneapolis Center
10:40AM 44.6833 -93.6875 232° Southwest 327 376 14,700 2,040 Climbing Minneapolis Center
10:41AM 44.6111 -93.7664 218° Southwest 341 392 16,800 1,980 Climbing Minneapolis Center
10:42AM 44.5236 -93.8194 203° Southwest 345 397 18,800 1,740 Climbing Minneapolis Center
10:43AM 44.4347 -93.8725 203° Southwest 348 400 20,400 1,440 Climbing Minneapolis Center
10:44AM 44.3425 -93.9269 203° Southwest 355 409 21,800 1,260 Climbing Minneapolis Center
10:45AM 44.2272 -93.9939 203° Southwest 371 427 23,100 1,200 Climbing Minneapolis Center
10:46AM 44.1303 -94.0497 202° Southwest 376 433 24,300 1,020 Climbing Minneapolis Center
10:47AM 44.0319 -94.1064 203° Southwest 381 438 25,300 840 Climbing Minneapolis Center
10:48AM 43.9317 -94.1650 203° Southwest 390 449 26,100 780 Climbing Minneapolis Center
10:49AM 43.8286 -94.2250 203° Southwest 399 459 27,000 960 Climbing Minneapolis Center
10:50AM 43.7103 -94.2925 202° Southwest 400 460 28,200 900 Climbing Minneapolis Center
10:51AM 43.6081 -94.3500 202° Southwest 397 457 28,900 600 Climbing Minneapolis Center
10:52AM 43.5050 -94.4083 202° Southwest 399 459 29,500 480 Climbing Minneapolis Center
10:53AM 43.4011 -94.4681 203° Southwest 403 464 30,000 240 Climbing Minneapolis Center
10:54AM 43.2972 -94.5269 202° Southwest 404 465 30,000  Level Minneapolis Center
10:55AM 43.1919 -94.5867 202° Southwest 408 470 30,000  Level Minneapolis Center
10:56AM 43.0867 -94.6456 202° Southwest 409 471 30,000  Level Minneapolis Center
10:57AM 42.9819 -94.7047 202° Southwest 407 468 30,000  Level Minneapolis Center
10:58AM 42.8775 -94.7619 202° Southwest 405 466 30,000  Level Minneapolis Center
10:59AM 42.7517 -94.8333 203° Southwest 407 468 30,000  Level Minneapolis Center
11:00AM 42.6625 -94.8806 201° Southwest 403 464 30,000  Level Minneapolis Center
11:01AM 42.5569 -94.9389 202° Southwest 406 467 30,000  Level Minneapolis Center
11:02AM 42.4317 -95.0089 202° Southwest 406 467 30,000  Level Minneapolis Center
11:03AM 42.3269 -95.0661 202° Southwest 407 468 30,000  Level Minneapolis Center
11:04AM 42.2211 -95.1244 202° Southwest 410 472 30,000  Level Minneapolis Center
11:05AM 42.1142 -95.1803 201° Southwest 410 472 30,000  Level Minneapolis Center
11:06AM 42.0075 -95.2383 202° Southwest 413 475 30,000  Level Minneapolis Center
11:07AM 41.8994 -95.2961 202° Southwest 417 480 30,000  Level Minneapolis Center
11:08AM 41.7908 -95.3542 202° Southwest 419 482 30,000  Level Minneapolis Center
11:09AM 41.6833 -95.4119 202° Southwest 415 478 30,000  Level Minneapolis Center
11:10AM 41.5761 -95.4703 202° Southwest 415 478 30,000  Level Minneapolis Center
11:12AM 41.4692 -95.5267 202° Southwest 412 474 30,000  Level Minneapolis Center
11:13AM 41.3403 -95.5942 201° Southwest 411 473 30,000  Level Minneapolis Center
11:14AM 41.2356 -95.6506 202° Southwest 406 467 30,000  Level Minneapolis Center
11:15AM 41.1300 -95.7061 202° Southwest 406 467 30,000  Level Minneapolis Center
11:16AM 41.0222 -95.7611 201° Southwest 406 467 30,000  Level Minneapolis Center
11:17AM 40.9172 -95.8164 202° Southwest 405 466 30,000  Level Minneapolis Center
11:18AM 40.8117 -95.8708 201° Southwest 404 465 30,000  Level Minneapolis Center
11:19AM 40.7067 -95.9256 202° Southwest 405 466 30,000  Level Minneapolis Center
11:20AM 40.6011 -95.9803 201° Southwest 405 466 30,000  Level Minneapolis Center
11:21AM 40.4953 -96.0350 201° Southwest 408 470 30,000  Level Minneapolis Center
11:22AM 40.3908 -96.0881 201° Southwest 404 465 30,000  Level Minneapolis Center
11:23AM 40.2858 -96.1419 201° Southwest 404 465 30,000  Level Minneapolis Center
11:24AM 40.1600 -96.2053 201° Southwest 403 464 30,000  Level Minneapolis Center
11:25AM 40.0544 -96.2564 200° South 403 464 30,000  Level Minneapolis Center
11:26AM 39.9464 -96.2969 196° South 405 466 30,000  Level Minneapolis Center
11:27AM 39.8386 -96.3389 197° South 404 465 30,000  Level Minneapolis Center
11:28AM 39.7308 -96.3806 197° South 403 464 30,000  Level Minneapolis Center
11:29AM 39.6239 -96.4233 197° South 403 464 30,000  Level Minneapolis Center
11:30AM 39.5164 -96.4636 196° South 402 463 30,000  Level Minneapolis Center
11:31AM 39.4106 -96.5067 197° South 401 461 30,000  Level Minneapolis Center
11:32AM 39.3036 -96.5447 195° South 400 460 30,000  Level Minneapolis Center
11:33AM 39.1758 -96.5947 197° South 399 459 30,000 -1,020 Level Minneapolis Center
11:34AM 39.0694 -96.6372 197° South 399 459 28,000 -1,920 Descending Minneapolis Center
11:35AM 38.9419 -96.6839 196° South 388 447 25,500 -1,980 Descending Kansas City Center
11:36AM 38.8342 -96.7242 196° South 367 422 23,300 -2,040 Descending Kansas City Center
11:38AM 38.7481 -96.7575 197° South 336 387 21,300 -1,980 Descending Kansas City Center
11:39AM 38.6519 -96.7944 197° South 331 381 19,300 -1,860 Descending Kansas City Center
11:40AM 38.5500 -96.8331 197° South 351 404 17,500 -1,680 Descending Kansas City Center
11:41AM 38.4606 -96.8669 197° South 346 398 15,800 -1,740 Descending Kansas City Center
11:42AM 38.3703 -96.9028 197° South 338 389 14,100 -1,800 Descending Kansas City Center
11:42AM 38.3664 -96.9028 180° South 339 390 14,000 -1,020 Descending Kansas City Center
11:42AM 38.3075 -96.9264 197° South 341 392 13,400 -960 Descending Kansas City Center
11:43AM 38.2714 -96.9378 194° South 339 390 13,000 -1,200 Descending Kansas City Center
11:43AM 38.2103 -96.9633 198° South 336 387 12,100 -1,500 Descending Kansas City Center
11:44AM 38.1811 -96.9797 204° Southwest 332 382 11,500 -1,680 Descending Kansas City Center
11:44AM 38.1400 -97.0175 216° Southwest 319 367 10,600 -1,620 Descending Kansas City Center
11:45AM 38.1061 -97.0442 212° Southwest 309 356 9,900 -1,380 Descending Kansas City Center
11:45AM 38.0722 -97.0761 217° Southwest 288 331 9,200 -1,440 Descending Kansas City Center
11:46AM 38.0400 -97.0997 210° Southwest 296 341 8,500 -1,620 Descending Kansas City Center
11:46AM 38.0022 -97.1325 214° Southwest 294 338 7,600 -1,500 Descending Kansas City Center
11:47AM 37.9703 -97.1603 214° Southwest 290 334 6,900 -1,560 Descending Kansas City Center
11:47AM 37.9425 -97.1872 217° Southwest 289 333 6,200 -900 Descending Kansas City Center
11:48AM 37.9022 -97.2189 212° Southwest 284 327 6,000 -240 Descending Kansas City Center
11:48AM 37.8764 -97.2400 213° Southwest 278 320 6,000  Level Kansas City Center
11:49AM 37.8297 -97.2547 194° South 265 305 6,000 -120 Level Kansas City Center
11:49AM 37.8050 -97.2619 193° South 256 295 5,900 -900 Descending Kansas City Center
11:50AM 37.7636 -97.2767 196° South 248 285 5,100 -1,320 Descending Kansas City Center
11:50AM 37.7400 -97.2853 196° South 237 273 4,600 -1,140 Descending Kansas City Center
11:51AM 37.6942 -97.2994 194° South 240 276 4,000 -600 Descending Kansas City Center
11:51AM 37.6747 -97.3061 195° South 236 272 4,000 -780 Level Kansas City Center
11:52AM 37.6322 -97.3206 195° South 231 266 3,200 -900 Descending Kansas City Center
11:52AM 37.5994 -97.3311 194° South 218 251 3,000 -120 Descending Kansas City Center
11:53AM 37.5731 -97.3392 194° South 218 251 3,100 60 Climbing Kansas City Center
11:53AM 37.5522 -97.3622 221° Southwest 215 247 3,100 -300 Level Kansas City Center
11:54AM 37.5464 -97.4003 259° West 202 232 2,800 -480 Descending Kansas City Center
11:54AM 37.5475 -97.4211 274° West 190 219 2,700 -300 Descending Kansas City Center
11:55AM 37.5719 -97.4536 314° West 168 193 2,500 -360 Descending Kansas City Center
11:55AM 37.5861 -97.4519 North 142 163 2,300 -420 Descending Kansas City Center
11:56AM 37.6078 -97.4431 18° North 132 152 2,100 -540 Descending Kansas City Center
11:56AM 37.6164 -97.4394 18° North 108 124 1,800 -720 Descending Kansas City Center
11:57AM 37.6406 -97.4289 19° North 119 137 1,400 -660 Descending Kansas City Center